This is the latest recevied weather packets stored in our database for station/object WD9EKA. If no packets are shown the sender has not sent any weather packets the latest 10 day(s).
| Time | Temp. | Humidity | Pressure | Rain* | Wind** | Luminosity | Snow |
|---|---|---|---|---|---|---|---|
| 1777969526 | 12.78° C | 99% | 1002.6 hPa | 3.81 mm | - | - | - |
| 1777969208 | 12.78° C | 99% | 1003 hPa | 3.81 mm | - | - | - |
| 1777968886 | 12.78° C | 99% | 1002.5 hPa | 3.3 mm | - | - | - |
| 1777968574 | 12.78° C | 99% | 1002.2 hPa | 3.3 mm | - | - | - |
| 1777968214 | 12.78° C | 99% | 1002 hPa | 3.3 mm | - | - | - |
| 1777967853 | 12.78° C | 99% | 1001.4 hPa | 3.56 mm | - | - | - |
| 1777967493 | 12.78° C | 99% | 1001.7 hPa | 3.3 mm | - | - | - |
| 1777966774 | 12.78° C | 99% | 1003 hPa | 5.33 mm | - | - | - |
| 1777966413 | 12.22° C | 99% | 1003 hPa | 4.83 mm | - | - | - |
| 1777966054 | 12.78° C | 99% | 1002.9 hPa | 4.57 mm | - | - | - |
| 1777965694 | 12.78° C | 98% | 1002.5 hPa | 4.32 mm | - | - | - |
| 1777965333 | 12.78° C | 97% | 1002.8 hPa | 4.06 mm | - | - | - |
| 1777964974 | 12.78° C | 97% | 1003 hPa | 3.56 mm | - | - | - |
| 1777964662 | 12.78° C | 96% | 1003.1 hPa | 3.56 mm | - | - | - |
| 1777964343 | 12.78° C | 94% | 1002.9 hPa | 3.56 mm | - | - | - |
| 1777964022 | 12.78° C | 91% | 1003.5 hPa | 3.05 mm | - | - | - |
| 1777963714 | 13.33° C | 90% | 1003.6 hPa | 2.29 mm | - | - | - |
| 1777963353 | 13.89° C | 88% | 1004 hPa | 0.51 mm | - | - | - |
| 1777962994 | 14.44° C | 85% | 1003.5 hPa | 0.25 mm | - | - | - |
| 1777962634 | 15° C | 80% | 1004 hPa | 0.25 mm | - | - | - |
| 1777962273 | 15.56° C | 75% | 1003.3 hPa | 0 mm | - | - | - |
| 1777961914 | 16.11° C | 77% | 1002.5 hPa | 0 mm | - | - | - |
| 1777961606 | 17.22° C | 76% | 1001.9 hPa | 0 mm | - | - | - |
| 1777961287 | 18.33° C | 73% | 1002 hPa | 0 mm | - | - | - |
| 1777960966 | 19.44° C | 67% | 1001.5 hPa | 0 mm | - | - | - |
* Rain latest hour (hover to see other rain measurements)
** Current wind speed in m/s (hover to see current wind gust speed)